N8351P KGFL-13ME
Flight info
| Callsign | N8351P |
|---|---|
| Flight time | 1h 45m |
| Altitude | 8000 |
| Route | NIPPY Q29 CABCI/N0154F090 DCT WRAPT |
| Aircraft | PA24/L-SDGRY/S |
Departure
| Time | 2026-05-06 15:04 |
|---|---|
| Airport | Floyd Bennett Memorial Airport (KGFL) |
Arrival
| Time | 2026-05-06 16:49 |
|---|---|
| Airport | Socatean Bay Airport (13ME) |
| Time | Latitude | Longitude | Altitude | Speed | Heading |
|---|---|---|---|---|---|
| 2026-05-06 15:01 | 43.33892 | -73.60829 | 325 ft | 11 kts | 228° |
| 2026-05-06 15:02 | 43.33888 | -73.60835 | 325 ft | 0 kts | 225° |
| 2026-05-06 15:02 | 43.33844 | -73.60873 | 324 ft | 8 kts | 255° |
| 2026-05-06 15:02 | 43.33776 | -73.60875 | 323 ft | 20 kts | 173° |
| 2026-05-06 15:03 | 43.33654 | -73.60885 | 323 ft | 11 kts | 190° |
| 2026-05-06 15:03 | 43.33647 | -73.60870 | 323 ft | 5 kts | 11° |
| 2026-05-06 15:03 | 43.33905 | -73.60878 | 325 ft | 67 kts | 359° |
| 2026-05-06 15:03 | 43.34430 | -73.60933 | 454 ft | 75 kts | 358° |
| 2026-05-06 15:04 | 43.34982 | -73.61069 | 613 ft | 82 kts | 342° |
| 2026-05-06 15:04 | 43.35415 | -73.61573 | 850 ft | 84 kts | 314° |
| 2026-05-06 15:04 | 43.35678 | -73.62308 | 1071 ft | 90 kts | 293° |
| 2026-05-06 15:04 | 43.35946 | -73.63054 | 1339 ft | 87 kts | 307° |
| 2026-05-06 15:05 | 43.36432 | -73.63586 | 1571 ft | 89 kts | 322° |
| 2026-05-06 15:05 | 43.36914 | -73.64118 | 1787 ft | 93 kts | 313° |
| 2026-05-06 15:05 | 43.37403 | -73.64711 | 2023 ft | 93 kts | 310° |
| 2026-05-06 15:05 | 43.37912 | -73.65275 | 2252 ft | 93 kts | 310° |
| 2026-05-06 15:06 | 43.38398 | -73.65850 | 2478 ft | 93 kts | 313° |
| 2026-05-06 15:06 | 43.38928 | -73.66402 | 2718 ft | 99 kts | 316° |
| 2026-05-06 15:06 | 43.39525 | -73.66899 | 3003 ft | 97 kts | 320° |
| 2026-05-06 15:06 | 43.40137 | -73.67357 | 3172 ft | 101 kts | 321° |
| 2026-05-06 15:07 | 43.40725 | -73.67793 | 3389 ft | 95 kts | 316° |
| 2026-05-06 15:07 | 43.41314 | -73.68228 | 3569 ft | 94 kts | 315° |
| 2026-05-06 15:07 | 43.41887 | -73.68667 | 3747 ft | 97 kts | 313° |
| 2026-05-06 15:07 | 43.42449 | -73.69129 | 3986 ft | 91 kts | 310° |
| 2026-05-06 15:08 | 43.42995 | -73.69593 | 4161 ft | 91 kts | 306° |
| 2026-05-06 15:08 | 43.43521 | -73.70066 | 4334 ft | 91 kts | 304° |
| 2026-05-06 15:08 | 43.44030 | -73.70561 | 4500 ft | 86 kts | 299° |
| 2026-05-06 15:08 | 43.44502 | -73.71089 | 4653 ft | 90 kts | 298° |
| 2026-05-06 15:09 | 43.44946 | -73.71670 | 4820 ft | 87 kts | 293° |
| 2026-05-06 15:09 | 43.45369 | -73.72241 | 4954 ft | 83 kts | 291° |
| 2026-05-06 15:09 | 43.45793 | -73.72782 | 5083 ft | 84 kts | 292° |
| 2026-05-06 15:09 | 43.46222 | -73.73338 | 5231 ft | 84 kts | 293° |
| 2026-05-06 15:10 | 43.46648 | -73.73889 | 5369 ft | 84 kts | 293° |
| 2026-05-06 15:10 | 43.47063 | -73.74429 | 5513 ft | 82 kts | 291° |
| 2026-05-06 15:10 | 43.47491 | -73.74978 | 5658 ft | 83 kts | 294° |
| 2026-05-06 15:10 | 43.47924 | -73.75486 | 5793 ft | 84 kts | 296° |
| 2026-05-06 15:11 | 43.48393 | -73.75981 | 5913 ft | 86 kts | 299° |
| 2026-05-06 15:11 | 43.48884 | -73.76453 | 5997 ft | 87 kts | 302° |
| 2026-05-06 15:11 | 43.49398 | -73.76887 | 6152 ft | 85 kts | 303° |
| 2026-05-06 15:11 | 43.49905 | -73.77299 | 6284 ft | 85 kts | 303° |
| 2026-05-06 15:12 | 43.50404 | -73.77706 | 6440 ft | 83 kts | 302° |
| 2026-05-06 15:12 | 43.50903 | -73.78131 | 6543 ft | 84 kts | 301° |
| 2026-05-06 15:12 | 43.51378 | -73.78575 | 6643 ft | 83 kts | 299° |
| 2026-05-06 15:12 | 43.51862 | -73.79019 | 6736 ft | 84 kts | 302° |
| 2026-05-06 15:13 | 43.52356 | -73.79451 | 6803 ft | 85 kts | 301° |
| 2026-05-06 15:13 | 43.52838 | -73.79894 | 6889 ft | 82 kts | 297° |
| 2026-05-06 15:13 | 43.53297 | -73.80354 | 6979 ft | 80 kts | 292° |
| 2026-05-06 15:13 | 43.53748 | -73.80805 | 7062 ft | 82 kts | 292° |
| 2026-05-06 15:14 | 43.54193 | -73.81266 | 7165 ft | 78 kts | 292° |
| 2026-05-06 15:14 | 43.54600 | -73.81757 | 7269 ft | 76 kts | 289° |
| 2026-05-06 15:14 | 43.54997 | -73.82249 | 7339 ft | 79 kts | 291° |
| 2026-05-06 15:14 | 43.55414 | -73.82738 | 7432 ft | 78 kts | 291° |
| 2026-05-06 15:15 | 43.55820 | -73.83238 | 7500 ft | 79 kts | 289° |
| 2026-05-06 15:15 | 43.56225 | -73.83732 | 7588 ft | 78 kts | 290° |
| 2026-05-06 15:15 | 43.56646 | -73.84219 | 7635 ft | 80 kts | 295° |
| 2026-05-06 15:15 | 43.57088 | -73.84679 | 7704 ft | 79 kts | 296° |
| 2026-05-06 15:16 | 43.57553 | -73.85120 | 7721 ft | 82 kts | 295° |
| 2026-05-06 15:16 | 43.58003 | -73.85583 | 7803 ft | 84 kts | 293° |
| 2026-05-06 15:16 | 43.58461 | -73.86142 | 7807 ft | 93 kts | 293° |
| 2026-05-06 15:16 | 43.58960 | -73.86793 | 7799 ft | 104 kts | 295° |
| 2026-05-06 15:17 | 43.59562 | -73.87464 | 7789 ft | 119 kts | 299° |
| 2026-05-06 15:17 | 43.60241 | -73.88083 | 7793 ft | 118 kts | 314° |
| 2026-05-06 15:17 | 43.60945 | -73.88524 | 7781 ft | 111 kts | 314° |
| 2026-05-06 15:17 | 43.61681 | -73.89032 | 7788 ft | 123 kts | 314° |
| 2026-05-06 15:18 | 43.62427 | -73.89665 | 7795 ft | 128 kts | 307° |
| 2026-05-06 15:18 | 43.63132 | -73.90415 | 7793 ft | 129 kts | 306° |
| 2026-05-06 15:18 | 43.63829 | -73.91215 | 7791 ft | 132 kts | 303° |
| 2026-05-06 15:18 | 43.64519 | -73.92059 | 7791 ft | 135 kts | 303° |
| 2026-05-06 15:19 | 43.65217 | -73.92920 | 7793 ft | 137 kts | 303° |
| 2026-05-06 15:19 | 43.65931 | -73.93791 | 7785 ft | 137 kts | 306° |
| 2026-05-06 15:19 | 43.66693 | -73.94612 | 7783 ft | 141 kts | 303° |
| 2026-05-06 15:19 | 43.67425 | -73.95488 | 7786 ft | 139 kts | 304° |
| 2026-05-06 15:20 | 43.68171 | -73.96346 | 7770 ft | 140 kts | 306° |
| 2026-05-06 15:20 | 43.69091 | -73.96741 | 7762 ft | 146 kts | 347° |
| 2026-05-06 15:20 | 43.70047 | -73.96226 | 7767 ft | 156 kts | 30° |
| 2026-05-06 15:20 | 43.70836 | -73.95131 | 7776 ft | 165 kts | 45° |
| 2026-05-06 15:21 | 43.71565 | -73.93882 | 7793 ft | 170 kts | 57° |
| 2026-05-06 15:21 | 43.72169 | -73.92458 | 7806 ft | 174 kts | 63° |
| 2026-05-06 15:21 | 43.72656 | -73.90916 | 7816 ft | 176 kts | 71° |
| 2026-05-06 15:21 | 43.73148 | -73.89344 | 7811 ft | 180 kts | 70° |
| 2026-05-06 15:22 | 43.73666 | -73.87732 | 7803 ft | 183 kts | 66° |
| 2026-05-06 15:22 | 43.74260 | -73.86165 | 7803 ft | 184 kts | 68° |
| 2026-05-06 15:22 | 43.74872 | -73.84629 | 7803 ft | 182 kts | 62° |
| 2026-05-06 15:22 | 43.75604 | -73.83198 | 7797 ft | 182 kts | 53° |
| 2026-05-06 15:23 | 43.76422 | -73.81854 | 7798 ft | 183 kts | 47° |
| 2026-05-06 15:23 | 43.77270 | -73.80562 | 7795 ft | 182 kts | 48° |
| 2026-05-06 15:23 | 43.78083 | -73.79221 | 7806 ft | 182 kts | 49° |
| 2026-05-06 15:23 | 43.78936 | -73.77935 | 7805 ft | 181 kts | 47° |
| 2026-05-06 15:24 | 43.79727 | -73.76571 | 7806 ft | 181 kts | 52° |
| 2026-05-06 15:24 | 43.80473 | -73.75187 | 7804 ft | 178 kts | 55° |
| 2026-05-06 15:24 | 43.81160 | -73.73759 | 7804 ft | 181 kts | 59° |
| 2026-05-06 15:24 | 43.81805 | -73.72236 | 7804 ft | 183 kts | 60° |
| 2026-05-06 15:25 | 43.82493 | -73.70765 | 7818 ft | 182 kts | 58° |
| 2026-05-06 15:25 | 43.83229 | -73.69339 | 7812 ft | 183 kts | 55° |
| 2026-05-06 15:25 | 43.83978 | -73.67922 | 7808 ft | 181 kts | 53° |
| 2026-05-06 15:25 | 43.84747 | -73.66536 | 7806 ft | 182 kts | 56° |
| 2026-05-06 15:26 | 43.85494 | -73.65136 | 7806 ft | 181 kts | 53° |
| 2026-05-06 15:26 | 43.86204 | -73.63698 | 7809 ft | 181 kts | 57° |
| 2026-05-06 15:26 | 43.86910 | -73.62300 | 7810 ft | 180 kts | 53° |
| 2026-05-06 15:26 | 43.87610 | -73.60826 | 7811 ft | 183 kts | 56° |
| 2026-05-06 15:27 | 43.88334 | -73.59363 | 7814 ft | 185 kts | 59° |
| 2026-05-06 15:27 | 43.89071 | -73.57888 | 7818 ft | 185 kts | 56° |
| 2026-05-06 15:27 | 43.89800 | -73.56443 | 7816 ft | 181 kts | 57° |
| 2026-05-06 15:27 | 43.90544 | -73.55020 | 7816 ft | 184 kts | 53° |
| 2026-05-06 15:28 | 43.91356 | -73.53646 | 7817 ft | 184 kts | 52° |
| 2026-05-06 15:28 | 43.92148 | -73.52249 | 7814 ft | 186 kts | 51° |
| 2026-05-06 15:28 | 43.92909 | -73.50854 | 7815 ft | 179 kts | 50° |
| 2026-05-06 15:28 | 43.93690 | -73.49492 | 7817 ft | 181 kts | 54° |
| 2026-05-06 15:29 | 43.94443 | -73.48108 | 7819 ft | 178 kts | 53° |
| 2026-05-06 15:29 | 43.95164 | -73.46695 | 7823 ft | 179 kts | 57° |
| 2026-05-06 15:29 | 43.95826 | -73.45228 | 7823 ft | 181 kts | 62° |
| 2026-05-06 15:29 | 43.96490 | -73.43740 | 7823 ft | 182 kts | 60° |
| 2026-05-06 15:30 | 43.97179 | -73.42272 | 7822 ft | 181 kts | 58° |
| 2026-05-06 15:30 | 43.97874 | -73.40821 | 7831 ft | 180 kts | 59° |
| 2026-05-06 15:30 | 43.98585 | -73.39386 | 7829 ft | 181 kts | 56° |
| 2026-05-06 15:30 | 43.99341 | -73.37987 | 7827 ft | 181 kts | 56° |
| 2026-05-06 15:31 | 44.00088 | -73.36581 | 7824 ft | 181 kts | 54° |
| 2026-05-06 15:31 | 44.00832 | -73.35169 | 7829 ft | 181 kts | 58° |
| 2026-05-06 15:31 | 44.01524 | -73.33716 | 7830 ft | 181 kts | 58° |
| 2026-05-06 15:32 | 44.03041 | -73.30921 | 7826 ft | 181 kts | 52° |
| 2026-05-06 15:32 | 44.03814 | -73.29528 | 7829 ft | 182 kts | 54° |
| 2026-05-06 15:32 | 44.04564 | -73.28110 | 7830 ft | 183 kts | 58° |
| 2026-05-06 15:32 | 44.05295 | -73.26658 | 7830 ft | 183 kts | 57° |
| 2026-05-06 15:33 | 44.05981 | -73.25191 | 7827 ft | 181 kts | 62° |
| 2026-05-06 15:33 | 44.06637 | -73.23688 | 7835 ft | 183 kts | 60° |
| 2026-05-06 15:33 | 44.07370 | -73.22231 | 7835 ft | 185 kts | 56° |
| 2026-05-06 15:33 | 44.08153 | -73.20796 | 7833 ft | 187 kts | 55° |
| 2026-05-06 15:34 | 44.08924 | -73.19333 | 7801 ft | 189 kts | 56° |
| 2026-05-06 15:34 | 44.09683 | -73.17847 | 7810 ft | 188 kts | 58° |
| 2026-05-06 15:34 | 44.10417 | -73.16387 | 7815 ft | 186 kts | 59° |
| 2026-05-06 15:34 | 44.11170 | -73.14925 | 7818 ft | 186 kts | 56° |
| 2026-05-06 15:35 | 44.11936 | -73.13469 | 7819 ft | 187 kts | 56° |
| 2026-05-06 15:35 | 44.12708 | -73.12008 | 7828 ft | 188 kts | 57° |
| 2026-05-06 15:35 | 44.13461 | -73.10519 | 7821 ft | 188 kts | 58° |
| 2026-05-06 15:35 | 44.14210 | -73.09032 | 7814 ft | 188 kts | 58° |
| 2026-05-06 15:36 | 44.14955 | -73.07539 | 7823 ft | 188 kts | 58° |
| 2026-05-06 15:36 | 44.15703 | -73.06045 | 7809 ft | 187 kts | 58° |
| 2026-05-06 15:36 | 44.16235 | -73.05073 | 7813 ft | 187 kts | 54° |
| 2026-05-06 15:36 | 44.17037 | -73.03639 | 7813 ft | 189 kts | 57° |
| 2026-05-06 15:37 | 44.17775 | -73.02124 | 7816 ft | 189 kts | 62° |
| 2026-05-06 15:37 | 44.18466 | -73.00599 | 7818 ft | 189 kts | 63° |
| 2026-05-06 15:37 | 44.19165 | -72.99048 | 7812 ft | 190 kts | 64° |
| 2026-05-06 15:37 | 44.19865 | -72.97503 | 7813 ft | 188 kts | 61° |
| 2026-05-06 15:38 | 44.20549 | -72.95971 | 7810 ft | 185 kts | 64° |
| 2026-05-06 15:38 | 44.21272 | -72.94487 | 7807 ft | 186 kts | 58° |
| 2026-05-06 15:38 | 44.22070 | -72.93058 | 7806 ft | 188 kts | 53° |
| 2026-05-06 15:38 | 44.22899 | -72.91637 | 7801 ft | 189 kts | 55° |
| 2026-05-06 15:39 | 44.23715 | -72.90193 | 7804 ft | 189 kts | 56° |
| 2026-05-06 15:39 | 44.24518 | -72.88764 | 7802 ft | 186 kts | 53° |
| 2026-05-06 15:39 | 44.25295 | -72.87312 | 7803 ft | 187 kts | 59° |
| 2026-05-06 15:39 | 44.26041 | -72.85823 | 7805 ft | 188 kts | 59° |
| 2026-05-06 15:40 | 44.26775 | -72.84307 | 7806 ft | 189 kts | 61° |
| 2026-05-06 15:40 | 44.27478 | -72.82770 | 7804 ft | 187 kts | 62° |
| 2026-05-06 15:40 | 44.28213 | -72.81277 | 7800 ft | 187 kts | 57° |
| 2026-05-06 15:40 | 44.28955 | -72.79785 | 7803 ft | 187 kts | 61° |
| 2026-05-06 15:41 | 44.29645 | -72.78227 | 7799 ft | 189 kts | 61° |
| 2026-05-06 15:41 | 44.30347 | -72.76700 | 7806 ft | 186 kts | 59° |
| 2026-05-06 15:41 | 44.31095 | -72.75218 | 7804 ft | 187 kts | 59° |
| 2026-05-06 15:41 | 44.31845 | -72.73735 | 7804 ft | 186 kts | 58° |
| 2026-05-06 15:42 | 44.32610 | -72.72269 | 7798 ft | 188 kts | 57° |
| 2026-05-06 15:42 | 44.33399 | -72.70834 | 7800 ft | 189 kts | 56° |
| 2026-05-06 15:42 | 44.34181 | -72.69344 | 7800 ft | 190 kts | 58° |
| 2026-05-06 15:42 | 44.34967 | -72.67861 | 7800 ft | 191 kts | 57° |
| 2026-05-06 15:43 | 44.35726 | -72.66347 | 7800 ft | 190 kts | 60° |
| 2026-05-06 15:43 | 44.36456 | -72.64807 | 7798 ft | 190 kts | 61° |
| 2026-05-06 15:43 | 44.37173 | -72.63265 | 7805 ft | 188 kts | 61° |
| 2026-05-06 15:43 | 44.37892 | -72.61728 | 7800 ft | 189 kts | 60° |
| 2026-05-06 15:44 | 44.38638 | -72.60213 | 7803 ft | 189 kts | 60° |
| 2026-05-06 15:44 | 44.39381 | -72.58701 | 7798 ft | 189 kts | 58° |
| 2026-05-06 15:44 | 44.40161 | -72.57223 | 7798 ft | 189 kts | 57° |
| 2026-05-06 15:44 | 44.40921 | -72.55728 | 7803 ft | 189 kts | 60° |
| 2026-05-06 15:45 | 44.41676 | -72.54240 | 7802 ft | 186 kts | 55° |
| 2026-05-06 15:45 | 44.42482 | -72.52811 | 7813 ft | 190 kts | 58° |
| 2026-05-06 15:45 | 44.43228 | -72.51323 | 7806 ft | 182 kts | 59° |
| 2026-05-06 15:45 | 44.43928 | -72.49806 | 7777 ft | 189 kts | 63° |
| 2026-05-06 15:46 | 44.44647 | -72.48262 | 7796 ft | 190 kts | 63° |
| 2026-05-06 15:46 | 44.45314 | -72.46681 | 7795 ft | 188 kts | 62° |
| 2026-05-06 15:46 | 44.46069 | -72.45196 | 7801 ft | 187 kts | 54° |
| 2026-05-06 15:46 | 44.46889 | -72.43769 | 7801 ft | 190 kts | 55° |
| 2026-05-06 15:47 | 44.47646 | -72.42260 | 7797 ft | 188 kts | 58° |
| 2026-05-06 15:47 | 44.48335 | -72.40765 | 7798 ft | 187 kts | 58° |
| 2026-05-06 15:47 | 44.49106 | -72.39296 | 7798 ft | 184 kts | 57° |
| 2026-05-06 15:47 | 44.49887 | -72.37856 | 7796 ft | 187 kts | 58° |
| 2026-05-06 15:48 | 44.50647 | -72.36393 | 7800 ft | 186 kts | 60° |
| 2026-05-06 15:48 | 44.51400 | -72.34907 | 7800 ft | 189 kts | 58° |
| 2026-05-06 15:48 | 44.52080 | -72.33345 | 7798 ft | 187 kts | 65° |
| 2026-05-06 15:48 | 44.52757 | -72.31791 | 7796 ft | 187 kts | 63° |
| 2026-05-06 15:49 | 44.53472 | -72.30259 | 7800 ft | 186 kts | 60° |
| 2026-05-06 15:49 | 44.54174 | -72.28720 | 7800 ft | 189 kts | 63° |
| 2026-05-06 15:49 | 44.54889 | -72.27163 | 7792 ft | 190 kts | 60° |
| 2026-05-06 15:49 | 44.55641 | -72.25640 | 7795 ft | 190 kts | 59° |
| 2026-05-06 15:50 | 44.56423 | -72.24148 | 7792 ft | 190 kts | 57° |
| 2026-05-06 15:50 | 44.57227 | -72.22683 | 7802 ft | 189 kts | 55° |
| 2026-05-06 15:50 | 44.58038 | -72.21207 | 7794 ft | 191 kts | 58° |
| 2026-05-06 15:50 | 44.58814 | -72.19720 | 7799 ft | 186 kts | 54° |
| 2026-05-06 15:51 | 44.59620 | -72.18280 | 7793 ft | 190 kts | 54° |
| 2026-05-06 15:51 | 44.60424 | -72.16791 | 7794 ft | 192 kts | 57° |
| 2026-05-06 15:51 | 44.61180 | -72.15253 | 7794 ft | 191 kts | 60° |
| 2026-05-06 15:51 | 44.61871 | -72.13663 | 7790 ft | 190 kts | 64° |
| 2026-05-06 15:52 | 44.62532 | -72.12099 | 7791 ft | 188 kts | 64° |
| 2026-05-06 15:52 | 44.63210 | -72.10516 | 7790 ft | 189 kts | 64° |
| 2026-05-06 15:52 | 44.63858 | -72.08900 | 7790 ft | 190 kts | 66° |
| 2026-05-06 15:52 | 44.64547 | -72.07306 | 7795 ft | 193 kts | 60° |
| 2026-05-06 15:53 | 44.65354 | -72.05794 | 7792 ft | 193 kts | 57° |
| 2026-05-06 15:53 | 44.66150 | -72.04273 | 7795 ft | 193 kts | 56° |
| 2026-05-06 15:53 | 44.67015 | -72.02849 | 7792 ft | 193 kts | 54° |
| 2026-05-06 15:53 | 44.67845 | -72.01330 | 7798 ft | 197 kts | 56° |
| 2026-05-06 15:54 | 44.68642 | -71.99760 | 7801 ft | 198 kts | 57° |
| 2026-05-06 15:54 | 44.69404 | -71.98181 | 7798 ft | 198 kts | 58° |
| 2026-05-06 15:54 | 44.70243 | -71.96621 | 7799 ft | 197 kts | 56° |
| 2026-05-06 15:54 | 44.71023 | -71.95070 | 7795 ft | 196 kts | 58° |
| 2026-05-06 15:55 | 44.71730 | -71.93438 | 7795 ft | 195 kts | 63° |
| 2026-05-06 15:55 | 44.72451 | -71.91786 | 7775 ft | 200 kts | 64° |
| 2026-05-06 15:55 | 44.73115 | -71.90096 | 7792 ft | 196 kts | 66° |
| 2026-05-06 15:55 | 44.73798 | -71.88442 | 7797 ft | 195 kts | 66° |
| 2026-05-06 15:56 | 44.74485 | -71.86784 | 7792 ft | 196 kts | 62° |
| 2026-05-06 15:56 | 44.75280 | -71.85242 | 7790 ft | 193 kts | 57° |
| 2026-05-06 15:56 | 44.76080 | -71.83730 | 7786 ft | 191 kts | 56° |
| 2026-05-06 15:56 | 44.76877 | -71.82234 | 7794 ft | 192 kts | 57° |
| 2026-05-06 15:57 | 44.77716 | -71.80767 | 7795 ft | 193 kts | 53° |
| 2026-05-06 15:57 | 44.78587 | -71.79330 | 7794 ft | 193 kts | 53° |
| 2026-05-06 15:57 | 44.79429 | -71.77849 | 7797 ft | 194 kts | 55° |
| 2026-05-06 15:57 | 44.80217 | -71.76314 | 7797 ft | 193 kts | 59° |
| 2026-05-06 15:58 | 44.80950 | -71.74738 | 7798 ft | 192 kts | 62° |
| 2026-05-06 15:58 | 44.81645 | -71.73136 | 7798 ft | 192 kts | 64° |
| 2026-05-06 15:58 | 44.82323 | -71.71519 | 7796 ft | 192 kts | 64° |
| 2026-05-06 15:58 | 44.82958 | -71.69872 | 7797 ft | 191 kts | 71° |
| 2026-05-06 15:59 | 44.83473 | -71.68159 | 7796 ft | 189 kts | 76° |
| 2026-05-06 15:59 | 44.83932 | -71.66431 | 7808 ft | 188 kts | 79° |
| 2026-05-06 15:59 | 44.84372 | -71.64691 | 7804 ft | 188 kts | 78° |
| 2026-05-06 15:59 | 44.84833 | -71.62965 | 7802 ft | 188 kts | 77° |
| 2026-05-06 16:00 | 44.85321 | -71.61262 | 7800 ft | 186 kts | 75° |
| 2026-05-06 16:00 | 44.85853 | -71.59603 | 7801 ft | 186 kts | 71° |
| 2026-05-06 16:00 | 44.86436 | -71.57962 | 7808 ft | 189 kts | 71° |
| 2026-05-06 16:00 | 44.86999 | -71.56276 | 7802 ft | 191 kts | 73° |
| 2026-05-06 16:01 | 44.87544 | -71.54562 | 7802 ft | 192 kts | 74° |
| 2026-05-06 16:01 | 44.88068 | -71.52858 | 7804 ft | 192 kts | 75° |
| 2026-05-06 16:01 | 44.88581 | -71.51115 | 7809 ft | 193 kts | 76° |
| 2026-05-06 16:01 | 44.89088 | -71.49365 | 7811 ft | 193 kts | 76° |
| 2026-05-06 16:02 | 44.89615 | -71.47616 | 7805 ft | 194 kts | 75° |
| 2026-05-06 16:02 | 44.90161 | -71.45865 | 7805 ft | 196 kts | 74° |
| 2026-05-06 16:02 | 44.90720 | -71.44109 | 7807 ft | 196 kts | 73° |
| 2026-05-06 16:02 | 44.91269 | -71.42350 | 7805 ft | 196 kts | 74° |
| 2026-05-06 16:03 | 44.91825 | -71.40596 | 7807 ft | 196 kts | 74° |
| 2026-05-06 16:03 | 44.92379 | -71.38839 | 7792 ft | 195 kts | 73° |
| 2026-05-06 16:03 | 44.92920 | -71.37114 | 7788 ft | 192 kts | 73° |
| 2026-05-06 16:03 | 44.93435 | -71.35369 | 7794 ft | 193 kts | 75° |
| 2026-05-06 16:04 | 44.93946 | -71.33620 | 7795 ft | 193 kts | 75° |
| 2026-05-06 16:04 | 44.94469 | -71.31873 | 7798 ft | 194 kts | 73° |
| 2026-05-06 16:04 | 44.95007 | -71.30127 | 7798 ft | 194 kts | 73° |
| 2026-05-06 16:04 | 44.95556 | -71.28390 | 7798 ft | 194 kts | 72° |
| 2026-05-06 16:05 | 44.96113 | -71.26649 | 7798 ft | 195 kts | 72° |
| 2026-05-06 16:05 | 44.96656 | -71.24896 | 7798 ft | 194 kts | 74° |
| 2026-05-06 16:05 | 44.97192 | -71.23144 | 7798 ft | 195 kts | 73° |
| 2026-05-06 16:05 | 44.97744 | -71.21409 | 7797 ft | 193 kts | 74° |
| 2026-05-06 16:06 | 44.98267 | -71.19672 | 7792 ft | 192 kts | 76° |
| 2026-05-06 16:06 | 44.98772 | -71.17922 | 7786 ft | 192 kts | 75° |
| 2026-05-06 16:06 | 44.99328 | -71.16199 | 7791 ft | 194 kts | 71° |
| 2026-05-06 16:06 | 44.99863 | -71.14443 | 7794 ft | 195 kts | 76° |
| 2026-05-06 16:07 | 45.00357 | -71.12663 | 7795 ft | 194 kts | 76° |
| 2026-05-06 16:07 | 45.00868 | -71.10910 | 7796 ft | 194 kts | 70° |
| 2026-05-06 16:07 | 45.01556 | -71.09228 | 7794 ft | 201 kts | 67° |
| 2026-05-06 16:07 | 45.02143 | -71.07426 | 7795 ft | 202 kts | 72° |
| 2026-05-06 16:08 | 45.02616 | -71.05544 | 7795 ft | 203 kts | 83° |
| 2026-05-06 16:08 | 45.03041 | -71.03658 | 7792 ft | 202 kts | 79° |
| 2026-05-06 16:08 | 45.03509 | -71.01820 | 7790 ft | 201 kts | 77° |
| 2026-05-06 16:08 | 45.04137 | -71.00049 | 7792 ft | 203 kts | 65° |
| 2026-05-06 16:09 | 45.04819 | -70.98291 | 7793 ft | 205 kts | 69° |
| 2026-05-06 16:09 | 45.05376 | -70.96453 | 7787 ft | 202 kts | 77° |
| 2026-05-06 16:09 | 45.05869 | -70.94603 | 7786 ft | 201 kts | 73° |
| 2026-05-06 16:09 | 45.06446 | -70.92780 | 7787 ft | 203 kts | 76° |
| 2026-05-06 16:10 | 45.06870 | -70.90935 | 7774 ft | 193 kts | 77° |
| 2026-05-06 16:10 | 45.07407 | -70.89167 | 7779 ft | 197 kts | 73° |
| 2026-05-06 16:10 | 45.07950 | -70.87502 | 7987 ft | 181 kts | 71° |
| 2026-05-06 16:10 | 45.08462 | -70.85879 | 7970 ft | 183 kts | 74° |
| 2026-05-06 16:11 | 45.08983 | -70.84232 | 7975 ft | 183 kts | 73° |
| 2026-05-06 16:11 | 45.09532 | -70.82645 | 7984 ft | 181 kts | 77° |
| 2026-05-06 16:11 | 45.09988 | -70.80968 | 7993 ft | 184 kts | 79° |
| 2026-05-06 16:11 | 45.10429 | -70.79263 | 7993 ft | 184 kts | 75° |
| 2026-05-06 16:12 | 45.11015 | -70.77649 | 7993 ft | 186 kts | 69° |
| 2026-05-06 16:12 | 45.11573 | -70.75991 | 7993 ft | 186 kts | 73° |
| 2026-05-06 16:12 | 45.12082 | -70.74320 | 7993 ft | 184 kts | 74° |
| 2026-05-06 16:12 | 45.12561 | -70.72644 | 7993 ft | 183 kts | 76° |
| 2026-05-06 16:13 | 45.12989 | -70.70966 | 7994 ft | 180 kts | 82° |
| 2026-05-06 16:13 | 45.13432 | -70.69306 | 7994 ft | 181 kts | 75° |
| 2026-05-06 16:13 | 45.13929 | -70.67660 | 7994 ft | 182 kts | 75° |
| 2026-05-06 16:13 | 45.14433 | -70.66008 | 7994 ft | 183 kts | 73° |
| 2026-05-06 16:14 | 45.14967 | -70.64360 | 7996 ft | 184 kts | 72° |
| 2026-05-06 16:14 | 45.15505 | -70.62707 | 7996 ft | 185 kts | 73° |
| 2026-05-06 16:14 | 45.16021 | -70.61034 | 7995 ft | 185 kts | 73° |
| 2026-05-06 16:14 | 45.16542 | -70.59362 | 7997 ft | 186 kts | 80° |
| 2026-05-06 16:15 | 45.16981 | -70.57660 | 7993 ft | 183 kts | 78° |
| 2026-05-06 16:15 | 45.17460 | -70.56000 | 7990 ft | 182 kts | 73° |
| 2026-05-06 16:15 | 45.17957 | -70.54357 | 7991 ft | 185 kts | 75° |
| 2026-05-06 16:15 | 45.18432 | -70.52683 | 7993 ft | 184 kts | 75° |
| 2026-05-06 16:16 | 45.18950 | -70.51010 | 7992 ft | 188 kts | 75° |
| 2026-05-06 16:16 | 45.19477 | -70.49314 | 7989 ft | 188 kts | 73° |
| 2026-05-06 16:16 | 45.20009 | -70.47626 | 7988 ft | 187 kts | 75° |
| 2026-05-06 16:16 | 45.20561 | -70.45959 | 7988 ft | 187 kts | 72° |
| 2026-05-06 16:17 | 45.21057 | -70.44254 | 7990 ft | 187 kts | 78° |
| 2026-05-06 16:17 | 45.21462 | -70.42514 | 7988 ft | 185 kts | 80° |
| 2026-05-06 16:17 | 45.21899 | -70.40807 | 7987 ft | 183 kts | 77° |
| 2026-05-06 16:17 | 45.22390 | -70.39144 | 7986 ft | 183 kts | 74° |
| 2026-05-06 16:18 | 45.22911 | -70.37501 | 7986 ft | 183 kts | 73° |
| 2026-05-06 16:18 | 45.23426 | -70.35858 | 7985 ft | 181 kts | 73° |
| 2026-05-06 16:18 | 45.23945 | -70.34234 | 7971 ft | 180 kts | 73° |
| 2026-05-06 16:18 | 45.24455 | -70.32612 | 7981 ft | 181 kts | 76° |
| 2026-05-06 16:19 | 45.24935 | -70.30981 | 7992 ft | 178 kts | 76° |
| 2026-05-06 16:19 | 45.25401 | -70.29341 | 7987 ft | 179 kts | 77° |
| 2026-05-06 16:19 | 45.25840 | -70.27716 | 7991 ft | 175 kts | 77° |
| 2026-05-06 16:19 | 45.26300 | -70.26123 | 7990 ft | 175 kts | 76° |
| 2026-05-06 16:20 | 45.26797 | -70.24536 | 7989 ft | 176 kts | 75° |
| 2026-05-06 16:20 | 45.27290 | -70.22940 | 7987 ft | 177 kts | 76° |
| 2026-05-06 16:20 | 45.27768 | -70.21332 | 7987 ft | 177 kts | 77° |
| 2026-05-06 16:20 | 45.28241 | -70.19715 | 7987 ft | 177 kts | 78° |
| 2026-05-06 16:21 | 45.28703 | -70.18091 | 7986 ft | 178 kts | 77° |
| 2026-05-06 16:21 | 45.29159 | -70.16452 | 7987 ft | 179 kts | 77° |
| 2026-05-06 16:21 | 45.29633 | -70.14822 | 7987 ft | 179 kts | 76° |
| 2026-05-06 16:21 | 45.30114 | -70.13213 | 7993 ft | 180 kts | 76° |
| 2026-05-06 16:22 | 45.30600 | -70.11567 | 7992 ft | 180 kts | 76° |
| 2026-05-06 16:22 | 45.31090 | -70.09932 | 7992 ft | 180 kts | 76° |
| 2026-05-06 16:22 | 45.31579 | -70.08294 | 7993 ft | 180 kts | 77° |
| 2026-05-06 16:22 | 45.32046 | -70.06639 | 7993 ft | 180 kts | 77° |
| 2026-05-06 16:23 | 45.32521 | -70.04990 | 7992 ft | 180 kts | 77° |
| 2026-05-06 16:23 | 45.32997 | -70.03331 | 7989 ft | 181 kts | 77° |
| 2026-05-06 16:23 | 45.33478 | -70.01681 | 7989 ft | 180 kts | 76° |
| 2026-05-06 16:23 | 45.33964 | -70.00034 | 7989 ft | 181 kts | 77° |
| 2026-05-06 16:24 | 45.34463 | -69.98390 | 7989 ft | 182 kts | 75° |
| 2026-05-06 16:24 | 45.34947 | -69.96732 | 7989 ft | 181 kts | 77° |
| 2026-05-06 16:24 | 45.35436 | -69.95080 | 7998 ft | 181 kts | 77° |
| 2026-05-06 16:24 | 45.35920 | -69.93425 | 7995 ft | 181 kts | 77° |
| 2026-05-06 16:25 | 45.36392 | -69.91770 | 7994 ft | 181 kts | 77° |
| 2026-05-06 16:25 | 45.36863 | -69.90114 | 7994 ft | 180 kts | 77° |
| 2026-05-06 16:25 | 45.37329 | -69.88458 | 7994 ft | 181 kts | 77° |
| 2026-05-06 16:25 | 45.37803 | -69.86805 | 7999 ft | 180 kts | 76° |
| 2026-05-06 16:26 | 45.38284 | -69.85165 | 7995 ft | 179 kts | 76° |
| 2026-05-06 16:26 | 45.38776 | -69.83536 | 7995 ft | 179 kts | 77° |
| 2026-05-06 16:26 | 45.39266 | -69.81909 | 7994 ft | 179 kts | 77° |
| 2026-05-06 16:26 | 45.39746 | -69.80278 | 7995 ft | 179 kts | 78° |
| 2026-05-06 16:27 | 45.40210 | -69.78644 | 7995 ft | 178 kts | 78° |
| 2026-05-06 16:27 | 45.40511 | -69.77559 | 7997 ft | 178 kts | 78° |
| 2026-05-06 16:27 | 45.41111 | -69.75380 | 7998 ft | 178 kts | 77° |
| 2026-05-06 16:27 | 45.41427 | -69.74269 | 7998 ft | 180 kts | 78° |
| 2026-05-06 16:28 | 45.42053 | -69.72087 | 7995 ft | 180 kts | 77° |
| 2026-05-06 16:28 | 45.42542 | -69.70448 | 7992 ft | 180 kts | 77° |
| 2026-05-06 16:28 | 45.43030 | -69.68809 | 7992 ft | 180 kts | 77° |
| 2026-05-06 16:28 | 45.43359 | -69.67696 | 7992 ft | 180 kts | 77° |
| 2026-05-06 16:29 | 45.43832 | -69.66069 | 7992 ft | 180 kts | 77° |
| 2026-05-06 16:29 | 45.44298 | -69.64419 | 7992 ft | 180 kts | 78° |
| 2026-05-06 16:29 | 45.44765 | -69.62770 | 7991 ft | 179 kts | 78° |
| 2026-05-06 16:29 | 45.45233 | -69.61124 | 7991 ft | 179 kts | 78° |
| 2026-05-06 16:30 | 45.45703 | -69.59481 | 7997 ft | 179 kts | 78° |
| 2026-05-06 16:30 | 45.46020 | -69.58374 | 7997 ft | 179 kts | 78° |
| 2026-05-06 16:30 | 45.46641 | -69.56197 | 7997 ft | 179 kts | 77° |
| 2026-05-06 16:30 | 45.47112 | -69.54557 | 7997 ft | 178 kts | 77° |
| 2026-05-06 16:31 | 45.47585 | -69.52924 | 7997 ft | 178 kts | 77° |
| 2026-05-06 16:31 | 45.48055 | -69.51289 | 7994 ft | 179 kts | 77° |
| 2026-05-06 16:31 | 45.48528 | -69.49650 | 7994 ft | 179 kts | 78° |
| 2026-05-06 16:31 | 45.49004 | -69.48011 | 7995 ft | 180 kts | 77° |
| 2026-05-06 16:32 | 45.49492 | -69.46366 | 7996 ft | 181 kts | 76° |
| 2026-05-06 16:32 | 45.49950 | -69.44695 | 7993 ft | 181 kts | 79° |
| 2026-05-06 16:32 | 45.50413 | -69.43028 | 8014 ft | 181 kts | 78° |
| 2026-05-06 16:32 | 45.50898 | -69.41378 | 8005 ft | 181 kts | 76° |
| 2026-05-06 16:33 | 45.51461 | -69.39795 | 8003 ft | 179 kts | 54° |
| 2026-05-06 16:33 | 45.52549 | -69.38979 | 7998 ft | 180 kts | 10° |
| 2026-05-06 16:33 | 45.53779 | -69.39038 | 7997 ft | 175 kts | 342° |
| 2026-05-06 16:34 | 45.56217 | -69.38675 | 8000 ft | 184 kts | 14° |
| 2026-05-06 16:34 | 45.57393 | -69.38035 | 8000 ft | 184 kts | 15° |
| 2026-05-06 16:34 | 45.58647 | -69.37608 | 8016 ft | 185 kts | 1° |
| 2026-05-06 16:34 | 45.59930 | -69.37589 | 8013 ft | 183 kts | 344° |
| 2026-05-06 16:35 | 45.61147 | -69.37971 | 8012 ft | 177 kts | 330° |
| 2026-05-06 16:35 | 45.62260 | -69.38633 | 8012 ft | 171 kts | 319° |
| 2026-05-06 16:35 | 45.63195 | -69.39608 | 8016 ft | 162 kts | 298° |
| 2026-05-06 16:35 | 45.63901 | -69.40792 | 8009 ft | 153 kts | 292° |
| 2026-05-06 16:36 | 45.64600 | -69.41917 | 7982 ft | 152 kts | 299° |
| 2026-05-06 16:36 | 45.65502 | -69.42938 | 7589 ft | 176 kts | 315° |
| 2026-05-06 16:36 | 45.66617 | -69.43605 | 7592 ft | 172 kts | 333° |
| 2026-05-06 16:36 | 45.67860 | -69.43964 | 7217 ft | 192 kts | 341° |
| 2026-05-06 16:37 | 45.69187 | -69.44248 | 7040 ft | 193 kts | 342° |
| 2026-05-06 16:37 | 45.70504 | -69.44637 | 6815 ft | 193 kts | 336° |
| 2026-05-06 16:37 | 45.71795 | -69.45224 | 6539 ft | 196 kts | 330° |
| 2026-05-06 16:37 | 45.73018 | -69.45977 | 6426 ft | 188 kts | 325° |
| 2026-05-06 16:38 | 45.74222 | -69.46825 | 6050 ft | 195 kts | 325° |
| 2026-05-06 16:38 | 45.75426 | -69.47634 | 5932 ft | 187 kts | 327° |
| 2026-05-06 16:38 | 45.76611 | -69.48396 | 5711 ft | 188 kts | 328° |
| 2026-05-06 16:38 | 45.77808 | -69.49207 | 5336 ft | 194 kts | 337° |
| 2026-05-06 16:39 | 45.79125 | -69.49709 | 5117 ft | 192 kts | 343° |
| 2026-05-06 16:39 | 45.80345 | -69.50488 | 4575 ft | 202 kts | 316° |
| 2026-05-06 16:39 | 45.80949 | -69.52349 | 3761 ft | 213 kts | 275° |
| 2026-05-06 16:39 | 45.81199 | -69.54219 | 3978 ft | 176 kts | 287° |
| 2026-05-06 16:40 | 45.81685 | -69.55871 | 3544 ft | 187 kts | 290° |
| 2026-05-06 16:40 | 45.82075 | -69.57520 | 3619 ft | 167 kts | 280° |
| 2026-05-06 16:40 | 45.82117 | -69.59108 | 3640 ft | 154 kts | 263° |
| 2026-05-06 16:40 | 45.81956 | -69.60577 | 3686 ft | 148 kts | 251° |
| 2026-05-06 16:41 | 45.81528 | -69.61908 | 3667 ft | 147 kts | 237° |
| 2026-05-06 16:41 | 45.80926 | -69.63140 | 3528 ft | 154 kts | 225° |
| 2026-05-06 16:41 | 45.80204 | -69.64244 | 3515 ft | 149 kts | 225° |
| 2026-05-06 16:41 | 45.79637 | -69.65472 | 3352 ft | 158 kts | 243° |
| 2026-05-06 16:42 | 45.79389 | -69.67069 | 3158 ft | 166 kts | 265° |
| 2026-05-06 16:42 | 45.79436 | -69.68623 | 3285 ft | 150 kts | 279° |
| 2026-05-06 16:42 | 45.79663 | -69.70066 | 3331 ft | 148 kts | 278° |
| 2026-05-06 16:42 | 45.79655 | -69.71536 | 3311 ft | 150 kts | 259° |
| 2026-05-06 16:43 | 45.79359 | -69.72952 | 3313 ft | 144 kts | 245° |
| 2026-05-06 16:43 | 45.79228 | -69.74319 | 3313 ft | 138 kts | 279° |
| 2026-05-06 16:43 | 45.79549 | -69.75599 | 3146 ft | 145 kts | 283° |
| 2026-05-06 16:43 | 45.79475 | -69.77084 | 3002 ft | 146 kts | 256° |
| 2026-05-06 16:44 | 45.79029 | -69.78371 | 2736 ft | 152 kts | 239° |
| 2026-05-06 16:44 | 45.78450 | -69.79670 | 2480 ft | 151 kts | 238° |
| 2026-05-06 16:44 | 45.77774 | -69.80744 | 2287 ft | 145 kts | 224° |
| 2026-05-06 16:44 | 45.76976 | -69.81539 | 2077 ft | 130 kts | 205° |
| 2026-05-06 16:45 | 45.76153 | -69.81773 | 1952 ft | 113 kts | 172° |
| 2026-05-06 16:45 | 45.75454 | -69.81287 | 1765 ft | 115 kts | 121° |
| 2026-05-06 16:45 | 45.75145 | -69.80264 | 1602 ft | 113 kts | 102° |
| 2026-05-06 16:45 | 45.74948 | -69.79131 | 1362 ft | 116 kts | 96° |
| 2026-05-06 16:46 | 45.75027 | -69.78003 | 1167 ft | 100 kts | 68° |
| 2026-05-06 16:46 | 45.75258 | -69.77239 | 1281 ft | 80 kts | 50° |
| 2026-05-06 16:46 | 45.75703 | -69.76725 | 1179 ft | 82 kts | 25° |
| 2026-05-06 16:46 | 45.76169 | -69.76354 | 1175 ft | 74 kts | 24° |
| 2026-05-06 16:47 | 45.76629 | -69.76047 | 1224 ft | 73 kts | 23° |
| 2026-05-06 16:47 | 45.77123 | -69.75819 | 1252 ft | 76 kts | 5° |
| 2026-05-06 16:47 | 45.77599 | -69.76020 | 1300 ft | 73 kts | 324° |
| 2026-05-06 16:47 | 45.77946 | -69.76575 | 1287 ft | 78 kts | 292° |
| 2026-05-06 16:48 | 45.78047 | -69.77355 | 1299 ft | 80 kts | 293° |
| 2026-05-06 16:48 | 45.78131 | -69.78117 | 1299 ft | 78 kts | 272° |
| 2026-05-06 16:48 | 45.78018 | -69.78873 | 1199 ft | 76 kts | 253° |
| 2026-05-06 16:48 | 45.77870 | -69.79533 | 1207 ft | 64 kts | 257° |
| 2026-05-06 16:49 | 45.77756 | -69.80201 | 1189 ft | 76 kts | 260° |
| 2026-05-06 16:49 | 45.77642 | -69.80900 | 1178 ft | 64 kts | 259° |
| 2026-05-06 16:49 | 45.77567 | -69.81334 | 1182 ft | 26 kts | 255° |
| 2026-05-06 16:49 | 45.77554 | -69.81469 | 1186 ft | 6 kts | 12° |
| 2026-05-06 16:50 | 45.77564 | -69.81379 | 1183 ft | 14 kts | 81° |
| 2026-05-06 16:50 | 45.77588 | -69.81231 | 1180 ft | 12 kts | 70° |
| 2026-05-06 16:50 | 45.77604 | -69.81131 | 1178 ft | 15 kts | 77° |
| 2026-05-06 16:50 | 45.77628 | -69.80990 | 1174 ft | 11 kts | 76° |
| 2026-05-06 16:51 | 45.77623 | -69.80922 | 1173 ft | 4 kts | 133° |
| 2026-05-06 16:51 | 45.77614 | -69.80902 | 1176 ft | 3 kts | 85° |
| 2026-05-06 16:51 | 45.77620 | -69.80873 | 1175 ft | 1 kts | 92° |
| 2026-05-06 16:51 | 45.77621 | -69.80869 | 1174 ft | 0 kts | 40° |
| 2026-05-06 16:52 | 45.77622 | -69.80868 | 1174 ft | 0 kts | 357° |
| 2026-05-06 17:19 | 45.77626 | -69.80870 | 1175 ft | 3 kts | 322° |
| 2026-05-06 17:19 | 45.77623 | -69.80913 | 1171 ft | 7 kts | 270° |
| 2026-05-06 17:19 | 45.77621 | -69.80969 | 1175 ft | 10 kts | 263° |